Flight Track Log - Related Links

Times and Time Zones

All times are in EDT time to prevent confusion due to time zone crossing. See the N9092X flight status page for this flight to view local times or setup timezone preferences in your user account.

Time Position Orientation Groundspeed Altitude Reporting Facility
EDT Latitude Longitude Course Direction KTS MPH feet Rate Location/Type
Sun 06:01:00 PM 40.2922 -78.5021 129° Southeast  Level Estimated
Sun 06:02:00 PM 40.2680 -78.4632 129° Southeast  Level Estimated
Sun 06:03:00 PM 40.2438 -78.4244 129° Southeast  Level Estimated
Sun 06:03:09 PM 39.9686 -78.4864 129° Southeast 133 153 5,400  Level Cleveland Center
Sun 06:04:00 PM 40.2196 -78.3855 129° Southeast  Level Estimated
Sun 06:04:10 PM 39.9678 -78.4378 91° East 135 155 5,400  Level Cleveland Center
Sun 06:05:00 PM 40.1953 -78.3467 129° Southeast  Level Estimated
Sun 06:05:11 PM 39.9667 -78.3861 92° East 135 155 5,400  Level Cleveland Center
Sun 06:06:00 PM 40.1711 -78.3079 129° Southeast  Level Estimated
Sun 06:06:11 PM 39.9636 -78.3375 95° East 138 159 5,400  Level Cleveland Center
Sun 06:07:00 PM 40.1468 -78.2691 129° Southeast  Level Estimated
Sun 06:07:12 PM 39.9606 -78.2889 95° East 138 159 5,500  Level Cleveland Center
Sun 06:08:00 PM 40.1226 -78.2304 129° Southeast  Level Estimated
Sun 06:08:13 PM 39.9556 -78.2375 97° East 137 158 5,500  Level Cleveland Center
Sun 06:09:07 PM 39.9461 -78.1947 106° East 140 161 5,400 -52 Descending Cleveland Center
Sun 06:10:08 PM 39.9431 -78.1433 94° East 139 160 5,400 99 Level Cleveland Center
Sun 06:11:08 PM 39.9378 -78.0947 98° East 138 159 5,600 248 Climbing Cleveland Center
Sun 06:12:09 PM 39.9306 -78.0517 102° East 135 155 5,900 393 Climbing Cleveland Center
Sun 06:13:10 PM 39.9275 -78.0058 95° East 126 145 6,400 36 Climbing Cleveland Center
Sun 06:15:00 PM 39.8978 -77.9214 115° Southeast  Level FlightAware Approximate
Sun 06:17:40 PM 39.9167 -77.7833 129° Southeast 150 173 6,100  Level Potomac TRACON
Sun 06:18:40 PM 39.9167 -77.7333 90° East 150 173 6,000 -208 Descending Potomac TRACON
Sun 06:20:04 PM 39.9128 -77.6500 93° East 140 161 5,600 -296 Descending Washington Center
Sun 06:21:02 PM 39.9094 -77.6011 95° East 140 161 5,300 -252 Descending Washington Center
Sun 06:22:00 PM 39.7406 -77.6264 129° Southeast  Level FlightAware Approximate
Sun 06:22:03 PM 39.9000 -77.5494 103° East 140 161 5,100  Level Washington Center
Sun 06:23:00 PM 39.7159 -77.5874 129° Southeast  Level FlightAware Approximate
Sun 06:23:03 PM 39.8861 -77.5006 110° East 140 161 4,800  Level Washington Center
Sun 06:24:02 PM 39.8722 -77.4542 111° Southeast 140 161 4,500 -350 Descending Washington Center
Sun 06:25:03 PM 39.8542 -77.4106 118° Southeast 140 161 4,100 -393 Descending Washington Center
Sun 06:26:04 PM 39.8342 -77.3614 118° Southeast 140 161 3,700 -250 Descending Washington Center
Sun 06:27:03 PM 39.8181 -77.3203 117° Southeast 140 161 3,600 -173 Descending Washington Center
Sun 06:27:48 PM 39.8000 -77.2833 122° Southeast 144 166 3,400 -121 Descending Potomac TRACON
Sun 06:28:42 PM 39.8000 -77.2500 90° East 140 161 3,400 -50 Level Potomac TRACON
Sun 06:29:48 PM 39.7833 -77.2000 113° Southeast 132 152 3,300 -48 Descending Potomac TRACON
Sun 06:30:48 PM 39.7833 -77.2000 360° North 132 152 3,300  Level Potomac TRACON
Sun 06:31:48 PM 39.7833 -77.2000 360° North 132 152 3,300  Level Potomac TRACON
Sun 06:32:42 PM 39.7833 -77.2000 360° North 132 152 3,300  Level Potomac TRACON
Sun 06:33:42 PM 39.7833 -77.2000 360° North 132 152 3,300 -200 Level Potomac TRACON
Sun 06:34:42 PM 39.7500 -76.9833 101° East 124 143 2,900 -190 Descending Potomac TRACON
Sun 06:35:48 PM 39.7333 -76.9333 113° Southeast 130 150 2,900  Level Potomac TRACON
Sun 06:36:43 PM 39.7333 -76.8833 90° East 134 154 2,900 -50 Level Potomac TRACON
Sun 06:37:49 PM 39.7167 -76.8333 113° Southeast 131 151 2,800 -48 Descending Potomac TRACON
Sun 06:38:49 PM 39.7000 -76.8000 123° Southeast 128 147 2,800  Level Potomac TRACON
Sun 06:39:49 PM 39.7000 -76.7500 90° East 131 151 2,800  Level Potomac TRACON
Sun 06:40:49 PM 39.6833 -76.7000 113° Southeast 127 146 2,800 -50 Level Potomac TRACON
Sun 06:41:49 PM 39.6667 -76.6667 123° Southeast 129 148 2,700 -100 Descending Potomac TRACON
Sun 06:42:49 PM 39.6667 -76.6167 90° East 137 158 2,600 -100 Descending Potomac TRACON
Sun 06:43:49 PM 39.6500 -76.5667 113° Southeast 132 152 2,500 -53 Descending Potomac TRACON
Sun 06:44:43 PM 39.6333 -76.5333 123° Southeast 127 146 2,500  Level Potomac TRACON
Sun 06:45:43 PM 39.6333 -76.4833 90° East 123 142 2,500 50 Level Potomac TRACON
Sun 06:46:43 PM 39.6167 -76.4500 123° Southeast 122 140 2,600 150 Climbing Potomac TRACON
Sun 06:47:43 PM 39.6167 -76.4000 90° East 118 136 2,800 250 Climbing Potomac TRACON
Sun 06:48:43 PM 39.6000 -76.3667 123° Southeast 110 127 3,100 300 Climbing Potomac TRACON
Sun 06:49:43 PM 39.6000 -76.3333 90° East 111 128 3,400 149 Climbing Potomac TRACON
Sun 06:50:44 PM 39.6000 -76.2833 90° East 124 143 3,400 -104 Level Potomac TRACON
Sun 06:51:38 PM 39.6000 -76.2333 90° East 133 153 3,200 -158 Descending Potomac TRACON
Sun 06:52:38 PM 39.5833 -76.2000 123° Southeast 135 155 3,100 50 Descending Potomac TRACON
Sun 06:53:38 PM 39.5833 -76.1500 90° East 127 146 3,300 200 Climbing Potomac TRACON
Sun 06:54:38 PM 39.5667 -76.1167 123° Southeast 119 137 3,500 143 Climbing Potomac TRACON
Sun 06:55:44 PM 39.5500 -76.0667 113° Southeast 128 147 3,600 -95 Climbing Potomac TRACON
Sun 06:56:44 PM 39.5167 -76.0500 159° South 137 158 3,300 -200 Descending Potomac TRACON
Sun 06:57:44 PM 39.4833 -76.0167 142° Southeast 135 155 3,200 -53 Descending Potomac TRACON
Sun 06:58:38 PM 39.4500 -75.9833 142° Southeast 132 152 3,200  Level Potomac TRACON
Sun 06:59:44 PM 39.4333 -75.9667 142° Southeast 131 151 3,200  Level Potomac TRACON
Sun 07:00:38 PM 39.4000 -75.9333 142° Southeast 126 145 3,200 53 Level Potomac TRACON
Sun 07:01:38 PM 39.3667 -75.9167 159° South 118 136 3,300 48 Climbing Potomac TRACON
Sun 07:02:44 PM 39.3333 -75.9000 159° South 116 133 3,300  Level Potomac TRACON
Sun 07:03:44 PM 39.3167 -75.8833 142° Southeast 120 138 3,300  Level Potomac TRACON
Sun 07:04:44 PM 39.2833 -75.8667 159° South 127 146 3,300 -53 Level Potomac TRACON
Sun 07:05:38 PM 39.2500 -75.8500 159° South 125 144 3,200 -104 Descending Potomac TRACON
Sun 07:06:39 PM 39.2167 -75.8333 159° South 120 138 3,100 -47 Descending Potomac TRACON
Sun 07:07:45 PM 39.1833 -75.8167 159° South 122 140 3,100 -48 Level Potomac TRACON
Sun 07:08:45 PM 39.1500 -75.8000 159° South 119 137 3,000 -150 Descending Potomac TRACON
Sun 07:09:45 PM 39.1167 -75.7833 159° South 156 180 2,800 -200 Descending Potomac TRACON
Sun 07:11:00 PM 39.0729 -75.7677 161° South  Level Estimated
Sun 07:18:00 PM 38.8229 -75.7055 169° South  Level FlightAware Approximate
Sun 07:19:00 PM 38.7872 -75.6967 169° South  Level FlightAware Approximate
Sun 07:20:00 PM 38.7515 -75.6878 169° South  Level FlightAware Approximate
Sun 07:21:00 PM 38.7148 -75.6667 180° South  Level FlightAware Approximate
Sun 07:22:00 PM 38.6787 -75.6645 160° South  Level FlightAware Approximate
Sun 07:23:00 PM 38.6447 -75.6482 160° South  Level FlightAware Approximate
Sun 07:24:00 PM 38.6106 -75.6319 160° South  Level FlightAware Approximate
Sun 07:25:00 PM 38.5765 -75.6156 160° South  Level FlightAware Approximate
Sun 07:26:00 PM 38.5424 -75.5994 160° South  Level FlightAware Approximate
Sun 07:27:00 PM 38.5084 -75.5831 160° South  Level FlightAware Approximate
Sun 07:28:00 PM 38.4743 -75.5669 160° South  Level FlightAware Approximate
Sun 07:29:00 PM 38.4402 -75.5507 160° South  Level FlightAware Approximate
Sun 07:30:00 PM 38.4061 -75.5345 160° South  Level FlightAware Approximate
Sun 07:31:00 PM 38.3720 -75.5183 160° South  Level FlightAware Approximate

Login

Don't have an account? Register now (free) for customized features, flight alerts, and more!